Loading presentation...

Present Remotely

Send the link below via email or IM

Copy

Present to your audience

Start remote presentation

  • Invited audience members will follow you as you navigate and present
  • People invited to a presentation do not need a Prezi account
  • This link expires 10 minutes after you close the presentation
  • A maximum of 30 users can follow your presentation
  • Learn more about this feature in our knowledge base article

Do you really want to delete this prezi?

Neither you, nor the coeditors you shared it with will be able to recover it again.

DeleteCancel

Make your likes visible on Facebook?

Connect your Facebook account to Prezi and let your likes appear on your timeline.
You can change this under Settings & Account at any time.

No, thanks

Untitled Prezi

No description
by

Gabor K

on 1 April 2014

Comments (0)

Please log in to add your comment.

Report abuse

Transcript of Untitled Prezi

METAR és TAF
Meteorológiai jelentések és előrejelzések
METAR és TAF jellemzői
METAR
(Meteorological Actual Report)
Állomás azonosítója
Talajszél
a talajszél 10 perces átlaga
KT, MPS, KMH
26010KT, 09005KT
VRB03KT (Variable, kisebb mint 3 KT, szélirány gyorsan változik, nem meghatározható)
00000KT, szélcsend
270V320, váltakozó szélirány
31012G35KT (gust-lökések, 10 KT-val meghaladja a 10 perces átlagszelet)
METAR
TAF
Meteorological Actual Report
kódolt formában tartalmazza a reptéren egy bizonyos időpontban megfigyelt időjárási jelenségek összeségét
szabályos időközönként (fél óránként vagy óránként)
speciális jelentések: SPECI (special report)
METAR LHBP 130800Z 30010G18KT 270V320 0900 R31R/1500 FZFG SCT020 OVC060 03/M01 Q1006 81721095=
Terminal Aerodrome Forecast
METAR-kódolású előrejelzés az adott repülőtérre
szabályos időközönként (hat és kilenc óra, általában)
METAR LHBP 041500Z 041601 VRB03KT 7000 FEW040 BKN100 PROB30 TEMPO 1622 4000 -RA -SHRA SCT030 BKN080 BECMG 2201 2500 BR=
állomás azonosítója
a kiadás napja, ideje
talajszél
talaj menti látástávolság
kifutópálya menti látástávolság
jelenlegi időjárás
felhőzet (vertikális látástávolság)
hőmérséklet és harmatpont
QNH értéke
kiegészítő információ (TREND, pályaállapot, megjegyzések)
METAR LHBP 130800Z 30010G18KT 270V320 0900 R31R/1500 FZFG SCT020 OVC060 03/M01 Q1006 81721095=
jelentő állomás (repülőtér) négy betűs ICAO azonosító kódja
LHBP Budapest Liszt Ferenc
LHUD Szeged
Kiadás ideje
hónap napja és megfigyelés időpontja UTC-ben
Universal Time Coordinated
AUTO automatikus
COR javított
METAR LHBP 130800Z 30010G18KT 270V320 0900 R31R/1500 FZFG SCT020 OVC060 03/M01 Q1006 81721095=
Talaj menti látástávolság
minimális horizontális látástávolság, méterben
0900, 1200, 6000, 9999 (nagyobb mint 10 km)
0000 (50 méternél kevesebb látástávolság)
iránymenti látástávolság: 4000 NE (5000 méternél kisebb és különböző irányokba a minimális látásérték legalább 50%-a)
CAVOK (Clouds and Visibility OK):
10 km vagy több
nincs felhőzet 1500 m AAL (5000') alatt vagy a legnagyobb minimális szektormagasság alatt ( a nagyobb érték a döntő)
nincs CB vagy TCU
nincs szignifikáns időjárási jelenség
METAR LHBP 130800Z 30010G18KT 270V320 0900 R31R/1500 FZFG SCT020 OVC060 03/M01 Q1006 81721095=
Futópálya menti látástávolság
RVR: Runway Visual Range
ha a horizontális látástávolság vagy a RVR értéke 1500 méter alatt van
R31R/1500 (R=RVR, 31 jobb pálya, 1500 méter
R31R/P1500 (RVR nagyobb mint 1500 m)
R31R/M0150 (RVR kisebb mint 150 m)
R31R/U1500: upgrading
R31R/D1500: decreasing
R31R/1500N: no change
METAR LHBP 130800Z 30010G18KT 270V320 0900 R31R/1500 FZFG SCT020 OVC060 03/M01 Q1006 81721095=
Jelenlegi időjárás
(szignifikáns időjárás)
Felhőzet és függőleges látás
+SHRA
RETS
TSRA
-RASN
NSW (No Significant Weather)
Felhőzet mennyisége:
1/8-2/8 FEW
3/8-4/8 SCT (scattered)
5/8-7/8 BKN (broken)
8/8 OVC (overclouded)
Felhőtípusok: CB (cumulonimbus) és TCU (towering cumulus)
ha nincs felhő, viszont a CAVOK nem használható, akkor SKC (Sky clear)
Függőleges látástávolság: VV003(Vertical Visibility), 300'
METAR LHBP 130800Z 30010G18KT 270V320 0900 R31R/1500 FZFG SCT020 OVC060 03/M01 Q1006 81721095=
Hőmérséklet és harmatpont
Légnyomás a tengerszinten (QNH)
03/M01
Celsius fok
M minus
1006 mbar
1013mbar=29,92inHg=760Hgmm
METAR LHBP 130800Z 30010G18KT 270V320 0900 R31R/1500 FZFG SCT020 OVC060 03/M01 Q1006 81721095=
Kiegészítő információ
pálya/pályák állapota 81721095
NOSIG (No significant change)
TREND előrejelzés max. következő 2 órára
RE (recently)
WS RWY31L (windshear, szélnyírás)
METAR LHBP 130800Z 30010G18KT 270V320 0900 R31R/1500 FZFG SCT020 OVC060 03/M01 Q1006 81721095=
TAF
(Terminal Aerodrome Forecast)
TAF LHBP 041500Z 041601 VRB03KT 7000 FEW040 BKN100 PROB30 TEMPO 1622 4000 -RA -SHRA SCT030 BKN080 BECMG 2201 2500 BR=
kódolása hasonló a METAR-hoz
min. 1 órával az érvényesség előtt kerül kiadásra
azonosító csoport (repülőtér és kiadás, érvényesség)
talajszél
talajmenti látástávolság
jellemző időkép
felhőzet (függőleges látás)
várható szignifikáns változások
LHBP
041500Z 041601 kiadás időpontja UTC és érvényessége UTC
Szél: VRB03KT
Vízszintes látástávolság: 7000
Felhőzet FEW 4000'
PROB30 (probability) vagy 40 a következő elem valószínűsége 30-40%
TEMPO( temporarily) várhatóan 1 óránál rövidebb ideig tartó időjárási jelenség, az adott időszakban
BECMG (becoming) várhatóan 2-4 óráig tartó időjárási jelenség fog bekövetkezni, azokat az elemeket kell felsorolni, melyek változnak
FM (from) az adott időponttól fog bekövetkezni a változás
AMD TAF (amended TAF) utólag módosított, az előző érvénytelen
TAF
TAF LHBP 041500Z 041601 VRB03KT 7000 FEW040 BKN100 PROB30 TEMPO 1622 4000 -RA -SHRA SCT030 BKN080 BECMG 2201 2500 BR=
Példák, gyakorlás


METAR LHBP 150800Z 26015G21KT 240V290 0800 R31R/1500 -TSRA BR BKN020CB OVC060 21/02 Q1017 NOSIG=
METAR LPPD 241830Z 10013KT 3000 -RA BR SCT004 BKN006 15/14 Q1007=

TAF EHAM 241702Z 2418/2524 26014KT CAVOK BECMG 2418/2420 23007KT BECMG 2420/2423 6000 PROB30 2423/2507 1200 BCFG BR BKN002 BECMG 2423/2502 19005KT 4000 BR BECMG 2506/2509 24013KT 9999 NSW FEW025 BECMG 2516/2519 24008KT CAVOK=
TAF LPPD 241700Z 2418/2518 10012KT 8000 SCT005 SCT010 TEMPO 2418/2512 10015G25KT 5000 SHRA SCT002 BKN004 PROB30 TEMPO 2500/2512 2000 TSRA FEW018CB=

METAR LHBP 202130Z VRB03KT 0050 R31L/0150N R31R/0150N FZFG NSC M04/M04 Q1018 NOSIG=
METAR LHBP 191900Z 20006KT 9999 -SHRA SCT045CB BKN100 29/11 Q1008 BECMG 29030G48KT 6000 TSRA SQ SCT020 BKN030CB=
GAMET (kisgépes)
SIGMET (nagygépes)
SNOWTAM (havazás esetén)
ASHTAM (vulknáni hamu)
Egyéb jelentések
LHBP 242000Z 35008KT 320V040 8000 TSRA SCT008 SCT030CB BKN070 20/18 Q1017 WS RWY31 NOSIG=
LHBP 241900Z 01005KT 340V040 9999 RASH FEW005 BKN028CB BKN043 20/18 Q1017 WS RWY31 NOSIG=
LHBP 241800Z VRB02KT 8000 -SHRA FEW007 SCT030CB BKN070 20/18 Q1018 NOSIG=
LHBP 241700Z 16006KT 9999 -SHRA FEW040CB SCT045 BKN090 23/16 Q1018 NOSIG=
METAR változások összefüggései
METAR BIKF 011000Z 31003KT 280V340 5000 VCFG 02/00 Q1016 11CLRD60=
METAR EDDK 100850Z 21003KT 1600 -SN BR BKN003 OVC005 01/01 Q1007 TEMPO 1200 SNRA=
METAR LHBP 241030Z 22010KT 170V250 CAVOK 22/05 Q1027 NOSIG=
METAR LHKE 241245Z 27006G11MPS CAVOK 24/02 Q1026 NOSIG RMK BLU=
TAF LGTS 100400Z 101206 30008KT 9999 FEW035 PROB40 TEMPO 1806 6000 SHRA FEW018CB BKN030 BECMG 2022 34020G30KT=
TAF LHBP 241100Z 2412/2512 22009KT CAVOK BECMG 2416/2419 VRB03KT=
TAF EGLL 241658Z 2418/2524 25010KT 9999 SCT025 BECMG 2421/2424 8000 PROB40 TEMPO 2502/2508 SCT006 BKN012 BECMG 2507/2510 9999 TEMPO 2520/2524 7000 -RA PROB30 TEMPO 2521/2524 4000 RA BKN012 BECMG 2522/2524 34010KT=
Színkód Felhőalap Látótávolság
BLU+ (kék plusz) 20000 láb 8000 m fölött
BLU (kék) 2500 láb 8000 m
WHT (fehér) 1500 láb 5000 m
GRN (zöld) 700 láb 3500 m
YLO (sárga) 300 láb 1600 m
AMB (borostyán) 200 láb 800 m
RED (piros) 200 láb alatt 800 m alatt
BLACK (fekete) A repülőteret bezárták

81721095
Az első két szám a pályát jelöli 01-től 36-ig. A jobb (R, right) pályák esetében 50-et
adnak hozzá a pálya számához. Vagyis 31 = a 31-es vagy 31L pálya, 81 = a 31R pálya. A 88 azt
jelenti, hogy a reptér összes pályájára érvényes a megfigyelés.

81721095
A harmadik szám a pálya felületére vonatkozik. Ez lehet:
0 – tiszta és száraz
1 – nedves
2 – vizes
3 – deres
4 – havas
5 – nedves hó
6 – latyakos
7 – jeges
8 – fagyott hó
9 – hófúvás
/ – jelenleg nincs adat (pl. a hó eltakarítása folyik)

81721095
A pálya mekkora részét fedi le a hó, jég stb.
1 – kevesebb mint egy tizedét
2 – 10...25%
5 – 25...50%
9 – 50...100%
/ – jelenleg nincs adat (pl. a hó eltakarítása folyik)

81721095
A lerakódás (hó, jég) vastagsága. 00 és 90 között milliméterben értendő (vagyis
esetünkben a jégréteg 10 mm, vagyis 1 cm vastag). Ezen felül:
92 – 10 cm
93 – 15 cm
94 – 20 cm
95 – 25 cm
96 – 30 cm
97 – 35 cm
98 – 40 cm vagy több
99 – a pálya nem használható a hó/jég miatt, vagy pedig eltakarítás folyik
// – nem ismert vagy nem lehet mérni

81721095
Fékezőhatás. 01-től 90-ig a súrlódási együtthatót jelöli (0.01...0.90), ezen felül:
91 – rossz
92 – gyenge
93 – közepes
IVAO-HU METAR / TAF értelmezés 8 Kósa Gergely, Gyenge Zoltán
94 – megfelelő
95 – jó
99 – bizonytalan
// – nem ismert
Full transcript